Bissett, Canada
Current Conditions -  °F | °C
As of 7:00 AM on Saturday 20 Dec 2014 (Local Time) from CYRL Reporting Station
Freezing Drizzle Freezing Drizzle  
Wind Chill: 14°   Ceiling: 400
Heat Index: 21°   Visibility: 1.5mi
Dew Point: 21°   Wind: 6mph
Humidity: 100%   Direction: 110°ESE
Pressure: 30.03"   Gusts: NA
Location:  51.02°N, 95.67°W
Report Text: CYRL 201300Z 11005KT 1 1/2SM -FZDZ BR OVC004 M06/M06 A3003 RMK FG5ST3 ICE ON INDICATOR SLP196
Loading
Personal Weather Stations






























Interactive Weather Map New forecast layout! Learn more

10-Day Weather Forecast

Advertisements
Track Severe Weather on mobile